TOPK1: Soldier Creek, Topeka, KS

Data processed at Tue May 21 2019 22:10


All information presented herein is the property of the government of the United States of America and may be revised or deleted at any time without prior notice.
Dissemination of this information without the expressed written consent of the Public Affairs Office, Tulsa District U.S. Army Corps of Engineers is strictly prohibited.
These data are gathered electronically and, as presented, have not undergone any form of quality control. These data are not guaranteed to be valid or correct.
Go to home page.
Go to station list.
Go to home page.

Downstream station:


Previous Day
Next Day
Current Day
    
SHEF ID:       TOPK1     SOLDIER C NR TOPEKA, KS
STATION TYPE:  

               PRECIP     STAGE  STAGE(2)  RIV-FLOW  BAT-LOAD
                   in        ft        ft       cfs      volt
              Ccp-Rev   Ccp-Rev   Ccp-Rev   Ccp-Rev   Ccp-Rev
(US/Central)
05/21 00:00      0.00     11.97      ----      5384     12.60
05/21 01:00      0.01     13.04      ----      6288     12.60
05/21 02:00      0.00     13.69      ----      6872     12.60
05/21 03:00      0.00     14.02      ----      7179     12.60
05/21 04:00      0.00     14.17      ----      7320     12.60
05/21 05:00      0.00     14.09      ----      7244     12.60
05/21 06:00      0.00     13.94      ----      7104     12.60
05/21 07:00      0.00     13.72      ----      6900     12.60
05/21 08:00      0.00     13.43      ----      6635     12.60
05/21 09:00      0.01     13.31      ----      6528     12.60
05/21 10:00      0.00     13.64      ----      6826     12.60
05/21 11:00      0.00     14.73      ----      7861     12.60
05/21 12:00      0.00     15.98      ----      9138     13.24
05/21 13:00      0.00     16.92      ----     10162     13.83
05/21 14:00      0.00     17.50      ----     10821     13.12
05/21 15:00      0.00     17.78      ----     11147     13.12
05/21 16:00      0.00     17.89      ----     11276     13.00
05/21 17:00      0.00     17.79      ----     11158     13.12
05/21 18:00      0.01     17.53      ----     10856     13.53
05/21 19:00      0.00     17.13      ----     10398     13.12
05/21 20:00      0.00     16.67      ----      9884     13.00
05/21 21:00      0.00     16.07      ----      9233     12.95
05/21 22:00      0.00     15.34      ----      8472     12.89
05/21 23:00      ----      ----      ----      ----      ----